sensor_id;sensor_type;location;lat;lon;timestamp;pressure;altitude;pressure_sealevel;temperature;humidity
64243;BME280;50573;51.512;5.386;2023-04-01T00:06:27;98865.69;;;10.01;100.00
64243;BME280;50573;51.512;5.386;2023-04-01T00:16:31;98871.34;;;9.97;100.00
64243;BME280;50573;51.512;5.386;2023-04-01T00:26:36;98869.94;;;10.02;100.00
64243;BME280;50573;51.512;5.386;2023-04-01T00:36:38;98881.28;;;10.00;100.00
64243;BME280;50573;51.512;5.386;2023-04-01T00:46:43;98874.53;;;9.96;100.00
64243;BME280;50573;51.512;5.386;2023-04-01T00:56:49;98894.53;;;9.93;100.00
64243;BME280;50573;51.512;5.386;2023-04-01T01:07:09;98896.75;;;9.94;100.00
64243;BME280;50573;51.512;5.386;2023-04-01T01:17:18;98908.56;;;10.06;100.00
64243;BME280;50573;51.512;5.386;2023-04-01T01:27:27;98909.69;;;9.99;100.00
64243;BME280;50573;51.512;5.386;2023-04-01T01:37:33;98911.41;;;9.97;100.00
64243;BME280;50573;51.512;5.386;2023-04-01T01:47:37;98924.81;;;10.00;100.00
64243;BME280;50573;51.512;5.386;2023-04-01T01:57:44;98940.44;;;10.05;100.00
64243;BME280;50573;51.512;5.386;2023-04-01T02:07:55;98945.53;;;9.98;100.00
64243;BME280;50573;51.512;5.386;2023-04-01T02:18:02;98945.91;;;9.91;100.00
64243;BME280;50573;51.512;5.386;2023-04-01T02:28:06;98950.03;;;9.86;100.00
64243;BME280;50573;51.512;5.386;2023-04-01T02:38:14;98957.66;;;9.82;100.00
64243;BME280;50573;51.512;5.386;2023-04-01T02:48:18;98958.88;;;9.81;100.00
64243;BME280;50573;51.512;5.386;2023-04-01T02:58:23;98970.50;;;9.81;100.00
64243;BME280;50573;51.512;5.386;2023-04-01T03:08:26;98971.81;;;9.71;100.00
64243;BME280;50573;51.512;5.386;2023-04-01T03:18:30;98986.47;;;9.74;100.00
64243;BME280;50573;51.512;5.386;2023-04-01T03:28:33;98989.19;;;9.74;100.00
64243;BME280;50573;51.512;5.386;2023-04-01T03:38:39;99000.97;;;9.71;100.00
64243;BME280;50573;51.512;5.386;2023-04-01T03:48:42;98998.81;;;9.75;100.00
64243;BME280;50573;51.512;5.386;2023-04-01T03:58:47;99009.53;;;9.64;100.00
64243;BME280;50573;51.512;5.386;2023-04-01T04:08:50;99014.47;;;9.65;100.00
64243;BME280;50573;51.512;5.386;2023-04-01T04:18:56;99019.63;;;9.49;100.00
64243;BME280;50573;51.512;5.386;2023-04-01T04:28:59;99039.13;;;9.62;100.00
64243;BME280;50573;51.512;5.386;2023-04-01T04:39:04;99044.94;;;9.55;100.00
64243;BME280;50573;51.512;5.386;2023-04-01T04:49:09;99062.16;;;9.52;100.00
64243;BME280;50573;51.512;5.386;2023-04-01T04:59:13;99069.00;;;9.47;100.00
64243;BME280;50573;51.512;5.386;2023-04-01T05:09:23;99076.19;;;9.36;100.00
64243;BME280;50573;51.512;5.386;2023-04-01T05:19:28;99083.78;;;9.32;100.00
64243;BME280;50573;51.512;5.386;2023-04-01T05:29:31;99103.19;;;9.39;100.00
64243;BME280;50573;51.512;5.386;2023-04-01T05:39:41;99115.00;;;9.36;100.00
64243;BME280;50573;51.512;5.386;2023-04-01T05:49:44;99136.09;;;9.41;100.00
64243;BME280;50573;51.512;5.386;2023-04-01T05:59:48;99151.19;;;9.42;100.00
64243;BME280;50573;51.512;5.386;2023-04-01T06:09:51;99167.66;;;9.39;100.00
64243;BME280;50573;51.512;5.386;2023-04-01T06:20:02;99179.09;;;9.43;100.00
64243;BME280;50573;51.512;5.386;2023-04-01T06:30:21;99193.56;;;9.49;100.00
64243;BME280;50573;51.512;5.386;2023-04-01T06:40:45;99204.66;;;9.60;100.00
64243;BME280;50573;51.512;5.386;2023-04-01T06:50:58;99217.31;;;9.63;100.00
64243;BME280;50573;51.512;5.386;2023-04-01T07:01:44;99246.91;;;9.84;100.00
64243;BME280;50573;51.512;5.386;2023-04-01T07:11:50;99246.47;;;10.01;100.00
64243;BME280;50573;51.512;5.386;2023-04-01T07:22:27;99255.28;;;10.19;100.00
64243;BME280;50573;51.512;5.386;2023-04-01T07:32:47;99273.31;;;10.31;100.00
64243;BME280;50573;51.512;5.386;2023-04-01T07:43:05;99299.53;;;10.43;100.00
64243;BME280;50573;51.512;5.386;2023-04-01T07:53:42;99317.31;;;10.30;100.00
64243;BME280;50573;51.512;5.386;2023-04-01T08:04:05;99329.34;;;10.38;100.00
64243;BME280;50573;51.512;5.386;2023-04-01T13:48:07;99710.88;;;11.19;100.00
64243;BME280;50573;51.512;5.386;2023-04-01T13:58:38;99716.16;;;11.23;100.00
64243;BME280;50573;51.512;5.386;2023-04-01T14:09:10;99729.00;;;10.99;100.00
64243;BME280;50573;51.512;5.386;2023-04-01T14:19:56;99745.03;;;10.97;100.00
64243;BME280;50573;51.512;5.386;2023-04-01T14:30:20;99759.50;;;10.79;100.00
64243;BME280;50573;51.512;5.386;2023-04-01T14:40:35;99760.16;;;10.98;100.00
64243;BME280;50573;51.512;5.386;2023-04-01T14:50:45;99777.25;;;11.07;100.00
64243;BME280;50573;51.512;5.386;2023-04-01T15:00:55;99777.59;;;10.91;100.00
64243;BME280;50573;51.512;5.386;2023-04-01T15:11:25;99796.75;;;11.15;100.00
64243;BME280;50573;51.512;5.386;2023-04-01T15:21:49;99814.66;;;10.98;100.00
64243;BME280;50573;51.512;5.386;2023-04-01T15:32:00;99824.78;;;10.97;100.00
64243;BME280;50573;51.512;5.386;2023-04-01T15:42:22;99827.88;;;10.90;100.00
64243;BME280;50573;51.512;5.386;2023-04-01T15:52:38;99838.75;;;10.90;100.00
64243;BME280;50573;51.512;5.386;2023-04-01T16:02:48;99845.13;;;10.87;100.00
64243;BME280;50573;51.512;5.386;2023-04-01T16:13:06;99851.63;;;10.90;100.00
64243;BME280;50573;51.512;5.386;2023-04-01T16:23:33;99853.63;;;10.62;100.00
64243;BME280;50573;51.512;5.386;2023-04-01T16:33:46;99845.75;;;10.46;100.00
64243;BME280;50573;51.512;5.386;2023-04-01T16:43:52;99868.00;;;10.45;100.00
64243;BME280;50573;51.512;5.386;2023-04-01T16:54:04;99880.69;;;10.48;100.00
64243;BME280;50573;51.512;5.386;2023-04-01T17:04:14;99910.81;;;10.53;100.00
64243;BME280;50573;51.512;5.386;2023-04-01T17:14:28;99922.00;;;10.55;100.00
64243;BME280;50573;51.512;5.386;2023-04-01T17:24:42;99942.91;;;10.58;100.00
64243;BME280;50573;51.512;5.386;2023-04-01T17:34:57;99971.03;;;10.64;100.00
64243;BME280;50573;51.512;5.386;2023-04-01T17:45:10;99993.91;;;10.76;100.00
64243;BME280;50573;51.512;5.386;2023-04-01T17:55:41;100014.47;;;10.68;100.00
64243;BME280;50573;51.512;5.386;2023-04-01T18:05:56;100027.31;;;10.76;100.00
64243;BME280;50573;51.512;5.386;2023-04-01T18:26:39;100076.94;;;10.62;100.00
64243;BME280;50573;51.512;5.386;2023-04-01T18:36:49;100113.50;;;10.52;100.00
64243;BME280;50573;51.512;5.386;2023-04-01T18:47:00;100129.03;;;10.43;100.00
64243;BME280;50573;51.512;5.386;2023-04-01T18:57:12;100149.44;;;10.38;100.00
64243;BME280;50573;51.512;5.386;2023-04-01T19:07:41;100183.94;;;10.41;100.00
64243;BME280;50573;51.512;5.386;2023-04-01T19:17:56;100203.91;;;10.17;100.00
64243;BME280;50573;51.512;5.386;2023-04-01T19:28:07;100241.72;;;10.02;100.00
64243;BME280;50573;51.512;5.386;2023-04-01T19:38:25;100249.31;;;9.86;100.00
64243;BME280;50573;51.512;5.386;2023-04-01T19:48:41;100264.75;;;9.76;100.00
64243;BME280;50573;51.512;5.386;2023-04-01T19:58:52;100283.16;;;9.72;100.00
64243;BME280;50573;51.512;5.386;2023-04-01T20:09:22;100311.78;;;9.64;100.00
64243;BME280;50573;51.512;5.386;2023-04-01T20:19:35;100338.00;;;9.45;100.00
64243;BME280;50573;51.512;5.386;2023-04-01T20:29:47;100364.53;;;9.41;100.00
64243;BME280;50573;51.512;5.386;2023-04-01T20:50:41;100393.00;;;9.24;100.00
64243;BME280;50573;51.512;5.386;2023-04-01T21:00:57;100418.50;;;9.14;100.00
64243;BME280;50573;51.512;5.386;2023-04-01T21:11:13;100443.38;;;9.00;100.00
64243;BME280;50573;51.512;5.386;2023-04-01T21:21:32;100460.97;;;8.96;100.00
64243;BME280;50573;51.512;5.386;2023-04-01T21:31:50;100484.25;;;8.81;100.00
64243;BME280;50573;51.512;5.386;2023-04-01T21:42:07;100511.78;;;8.51;100.00
64243;BME280;50573;51.512;5.386;2023-04-01T21:52:31;100534.50;;;8.40;100.00
64243;BME280;50573;51.512;5.386;2023-04-01T22:13:31;100571.91;;;8.33;100.00
64243;BME280;50573;51.512;5.386;2023-04-01T22:23:44;100594.22;;;8.21;100.00
64243;BME280;50573;51.512;5.386;2023-04-01T22:33:56;100609.28;;;8.06;100.00
64243;BME280;50573;51.512;5.386;2023-04-01T22:44:02;100629.94;;;8.00;100.00
64243;BME280;50573;51.512;5.386;2023-04-01T22:54:13;100640.31;;;7.85;100.00
64243;BME280;50573;51.512;5.386;2023-04-01T23:04:22;100662.22;;;7.75;100.00
64243;BME280;50573;51.512;5.386;2023-04-01T23:14:44;100673.09;;;7.52;100.00
64243;BME280;50573;51.512;5.386;2023-04-01T23:24:53;100703.13;;;7.38;100.00
64243;BME280;50573;51.512;5.386;2023-04-01T23:35:00;100708.53;;;7.38;100.00
64243;BME280;50573;51.512;5.386;2023-04-01T23:45:04;100731.00;;;7.38;100.00
64243;BME280;50573;51.512;5.386;2023-04-01T23:55:18;100753.44;;;7.39;100.00
